KTBN/TBN METAR and TAF weather

Enter ICAO airport designator
Station Type Date Time Source
KTBN METAR 2021/09/25 11:56 UTC NOAA

KTBN 251156Z AUTO 00000KT 10SM CLR 11/10 A3014 RMK AO2 VIS 1/2 RWY33 SLP205 60000 T01050102 10161 20105 52013


Station Type Date Time Source
KTBN Decoded METAR 2021/09/25 11:56 UTC NOAA

Fort Leonard Wood, MO, United States (KTBN) 37-44N 092-08W
Sep 25, 2021 - 07:56 AM EDT / 2021.09.25 1156 UTC
Wind: Calm:0
Visibility: 10 mile(s):0
Sky conditions: clear
Temperature: 50.9 F (10.5 C)
Dew Point: 50.4 F (10.2 C)
Relative Humidity: 98%
Pressure (altimeter): 30.14 in. Hg (1020 hPa)
Pressure tendency: 0.04 inches (1.3 hPa) higher than three hours ago
ob: KTBN 251156Z AUTO 00000KT 10SM CLR 11/10 A3014 RMK AO2 VIS 1/2 RWY33 SLP205 60000 T01050102 10161 20105 52013
cycle: 12

Station Type Date Time Source
KTBN TAF UTC NOAA

Error!

Example: see airport list